sensor_id;sensor_type;location;lat;lon;timestamp;P1;durP1;ratioP1;P2;durP2;ratioP2
4616;SDS011;2321;42.704;23.384;2022-11-20T00:01:15;6.30;;;3.90;;
4616;SDS011;2321;42.704;23.384;2022-11-20T00:03:43;10.60;;;5.30;;
4616;SDS011;2321;42.704;23.384;2022-11-20T00:06:12;5.90;;;4.23;;
4616;SDS011;2321;42.704;23.384;2022-11-20T00:08:40;5.23;;;3.43;;
4616;SDS011;2321;42.704;23.384;2022-11-20T00:11:08;2.70;;;2.53;;
4616;SDS011;2321;42.704;23.384;2022-11-20T00:13:36;9.87;;;5.57;;
4616;SDS011;2321;42.704;23.384;2022-11-20T00:16:04;3.87;;;3.50;;
4616;SDS011;2321;42.704;23.384;2022-11-20T00:18:33;12.10;;;6.73;;
4616;SDS011;2321;42.704;23.384;2022-11-20T00:21:01;16.67;;;9.13;;
4616;SDS011;2321;42.704;23.384;2022-11-20T00:23:30;5.57;;;4.33;;
4616;SDS011;2321;42.704;23.384;2022-11-20T00:26:00;4.10;;;3.70;;
4616;SDS011;2321;42.704;23.384;2022-11-20T00:28:29;3.93;;;3.30;;
4616;SDS011;2321;42.704;23.384;2022-11-20T00:31:00;6.90;;;4.60;;
4616;SDS011;2321;42.704;23.384;2022-11-20T00:33:28;4.73;;;4.33;;
4616;SDS011;2321;42.704;23.384;2022-11-20T00:35:58;8.20;;;3.23;;
4616;SDS011;2321;42.704;23.384;2022-11-20T00:38:26;4.07;;;3.47;;
4616;SDS011;2321;42.704;23.384;2022-11-20T00:40:55;6.53;;;4.80;;
4616;SDS011;2321;42.704;23.384;2022-11-20T00:43:23;6.57;;;4.33;;
4616;SDS011;2321;42.704;23.384;2022-11-20T00:45:55;6.27;;;4.40;;
4616;SDS011;2321;42.704;23.384;2022-11-20T00:48:23;6.80;;;3.37;;
4616;SDS011;2321;42.704;23.384;2022-11-20T00:50:50;2.03;;;1.93;;
4616;SDS011;2321;42.704;23.384;2022-11-20T00:53:17;4.23;;;2.10;;
4616;SDS011;2321;42.704;23.384;2022-11-20T00:55:51;2.63;;;2.07;;
4616;SDS011;2321;42.704;23.384;2022-11-20T00:58:21;15.83;;;2.33;;
4616;SDS011;2321;42.704;23.384;2022-11-20T01:00:48;2.00;;;1.90;;
4616;SDS011;2321;42.704;23.384;2022-11-20T01:03:15;2.80;;;2.70;;
4616;SDS011;2321;42.704;23.384;2022-11-20T01:05:42;5.77;;;2.90;;
4616;SDS011;2321;42.704;23.384;2022-11-20T01:08:09;4.10;;;2.87;;
4616;SDS011;2321;42.704;23.384;2022-11-20T01:10:37;2.67;;;2.47;;
4616;SDS011;2321;42.704;23.384;2022-11-20T01:13:03;2.70;;;2.03;;
4616;SDS011;2321;42.704;23.384;2022-11-20T01:15:49;5.30;;;3.30;;
4616;SDS011;2321;42.704;23.384;2022-11-20T01:18:16;2.00;;;1.90;;
4616;SDS011;2321;42.704;23.384;2022-11-20T01:20:43;2.03;;;1.50;;
4616;SDS011;2321;42.704;23.384;2022-11-20T01:23:10;1.77;;;1.63;;
4616;SDS011;2321;42.704;23.384;2022-11-20T01:25:37;0.90;;;0.90;;
4616;SDS011;2321;42.704;23.384;2022-11-20T01:28:04;0.80;;;0.80;;
4616;SDS011;2321;42.704;23.384;2022-11-20T01:30:31;0.83;;;0.83;;
4616;SDS011;2321;42.704;23.384;2022-11-20T01:32:59;0.97;;;0.97;;
4616;SDS011;2321;42.704;23.384;2022-11-20T01:35:26;1.47;;;1.37;;
4616;SDS011;2321;42.704;23.384;2022-11-20T01:37:53;2.40;;;1.77;;
4616;SDS011;2321;42.704;23.384;2022-11-20T01:40:20;4.43;;;2.27;;
4616;SDS011;2321;42.704;23.384;2022-11-20T01:42:47;3.40;;;1.93;;
4616;SDS011;2321;42.704;23.384;2022-11-20T01:45:48;2.93;;;1.50;;
4616;SDS011;2321;42.704;23.384;2022-11-20T01:48:32;2.20;;;2.10;;
4616;SDS011;2321;42.704;23.384;2022-11-20T01:51:04;4.00;;;1.37;;
4616;SDS011;2321;42.704;23.384;2022-11-20T01:53:36;1.57;;;1.47;;
4616;SDS011;2321;42.704;23.384;2022-11-20T01:56:05;1.00;;;1.00;;
4616;SDS011;2321;42.704;23.384;2022-11-20T01:58:35;1.33;;;1.33;;
4616;SDS011;2321;42.704;23.384;2022-11-20T02:01:07;2.10;;;2.00;;
4616;SDS011;2321;42.704;23.384;2022-11-20T02:03:36;2.10;;;1.67;;
4616;SDS011;2321;42.704;23.384;2022-11-20T02:06:04;11.10;;;1.67;;
4616;SDS011;2321;42.704;23.384;2022-11-20T02:08:38;3.40;;;2.60;;
4616;SDS011;2321;42.704;23.384;2022-11-20T02:11:05;1.33;;;1.20;;
4616;SDS011;2321;42.704;23.384;2022-11-20T02:13:32;1.20;;;1.20;;
4616;SDS011;2321;42.704;23.384;2022-11-20T02:16:09;1.30;;;1.20;;
4616;SDS011;2321;42.704;23.384;2022-11-20T02:18:39;7.40;;;2.10;;
4616;SDS011;2321;42.704;23.384;2022-11-20T02:21:08;1.93;;;1.83;;
4616;SDS011;2321;42.704;23.384;2022-11-20T02:26:28;1.27;;;1.20;;
4616;SDS011;2321;42.704;23.384;2022-11-20T02:28:56;1.50;;;1.50;;
4616;SDS011;2321;42.704;23.384;2022-11-20T02:31:25;0.90;;;0.90;;
4616;SDS011;2321;42.704;23.384;2022-11-20T02:33:54;1.90;;;1.30;;
4616;SDS011;2321;42.704;23.384;2022-11-20T02:36:22;1.37;;;1.37;;
4616;SDS011;2321;42.704;23.384;2022-11-20T02:38:52;0.87;;;0.87;;
4616;SDS011;2321;42.704;23.384;2022-11-20T02:41:21;1.00;;;1.00;;
4616;SDS011;2321;42.704;23.384;2022-11-20T02:43:48;1.17;;;1.17;;
4616;SDS011;2321;42.704;23.384;2022-11-20T02:46:15;2.13;;;1.80;;
4616;SDS011;2321;42.704;23.384;2022-11-20T02:48:42;5.93;;;1.73;;
4616;SDS011;2321;42.704;23.384;2022-11-20T02:51:09;1.20;;;1.20;;
4616;SDS011;2321;42.704;23.384;2022-11-20T02:53:35;0.70;;;0.70;;
4616;SDS011;2321;42.704;23.384;2022-11-20T02:56:02;1.23;;;0.87;;
4616;SDS011;2321;42.704;23.384;2022-11-20T02:58:31;1.73;;;1.07;;
4616;SDS011;2321;42.704;23.384;2022-11-20T03:00:58;0.90;;;0.90;;
4616;SDS011;2321;42.704;23.384;2022-11-20T03:03:25;0.90;;;0.90;;
4616;SDS011;2321;42.704;23.384;2022-11-20T03:05:52;0.63;;;0.63;;
4616;SDS011;2321;42.704;23.384;2022-11-20T03:08:19;2.13;;;1.10;;
4616;SDS011;2321;42.704;23.384;2022-11-20T03:10:46;0.77;;;0.77;;
4616;SDS011;2321;42.704;23.384;2022-11-20T03:13:13;0.80;;;0.80;;
4616;SDS011;2321;42.704;23.384;2022-11-20T03:15:41;6.53;;;1.50;;
4616;SDS011;2321;42.704;23.384;2022-11-20T03:18:08;1.90;;;1.07;;
4616;SDS011;2321;42.704;23.384;2022-11-20T03:20:35;0.90;;;0.90;;
4616;SDS011;2321;42.704;23.384;2022-11-20T03:23:02;1.00;;;1.00;;
4616;SDS011;2321;42.704;23.384;2022-11-20T03:25:29;1.17;;;1.17;;
4616;SDS011;2321;42.704;23.384;2022-11-20T03:27:56;0.80;;;0.80;;
4616;SDS011;2321;42.704;23.384;2022-11-20T03:30:23;0.90;;;0.90;;
4616;SDS011;2321;42.704;23.384;2022-11-20T03:32:53;0.80;;;0.80;;
4616;SDS011;2321;42.704;23.384;2022-11-20T03:35:21;1.30;;;1.20;;
4616;SDS011;2321;42.704;23.384;2022-11-20T03:37:47;4.53;;;1.20;;
4616;SDS011;2321;42.704;23.384;2022-11-20T03:40:14;4.87;;;1.03;;
4616;SDS011;2321;42.704;23.384;2022-11-20T03:42:41;1.80;;;1.60;;
4616;SDS011;2321;42.704;23.384;2022-11-20T03:45:11;1.53;;;1.43;;
4616;SDS011;2321;42.704;23.384;2022-11-20T03:47:38;1.00;;;1.00;;
4616;SDS011;2321;42.704;23.384;2022-11-20T03:50:07;1.43;;;1.33;;
4616;SDS011;2321;42.704;23.384;2022-11-20T03:52:35;1.43;;;1.30;;
4616;SDS011;2321;42.704;23.384;2022-11-20T03:55:02;2.20;;;1.50;;
4616;SDS011;2321;42.704;23.384;2022-11-20T03:57:29;0.80;;;0.80;;
4616;SDS011;2321;42.704;23.384;2022-11-20T03:59:56;0.80;;;0.80;;
4616;SDS011;2321;42.704;23.384;2022-11-20T04:02:23;0.93;;;0.90;;
4616;SDS011;2321;42.704;23.384;2022-11-20T04:04:50;1.20;;;1.20;;
4616;SDS011;2321;42.704;23.384;2022-11-20T04:07:18;1.80;;;1.70;;
4616;SDS011;2321;42.704;23.384;2022-11-20T04:09:45;3.90;;;1.50;;
4616;SDS011;2321;42.704;23.384;2022-11-20T04:12:12;1.53;;;0.90;;
4616;SDS011;2321;42.704;23.384;2022-11-20T04:14:39;0.70;;;0.70;;
4616;SDS011;2321;42.704;23.384;2022-11-20T04:17:05;0.87;;;0.87;;
4616;SDS011;2321;42.704;23.384;2022-11-20T04:19:32;0.90;;;0.90;;
4616;SDS011;2321;42.704;23.384;2022-11-20T04:21:59;0.80;;;0.80;;
4616;SDS011;2321;42.704;23.384;2022-11-20T04:24:28;0.80;;;0.80;;
4616;SDS011;2321;42.704;23.384;2022-11-20T04:26:55;6.00;;;4.43;;
4616;SDS011;2321;42.704;23.384;2022-11-20T04:29:21;2.23;;;2.03;;
4616;SDS011;2321;42.704;23.384;2022-11-20T04:31:48;4.13;;;3.83;;
4616;SDS011;2321;42.704;23.384;2022-11-20T04:34:15;1.20;;;1.20;;
4616;SDS011;2321;42.704;23.384;2022-11-20T04:36:42;0.60;;;0.60;;
4616;SDS011;2321;42.704;23.384;2022-11-20T04:39:12;0.80;;;0.80;;
4616;SDS011;2321;42.704;23.384;2022-11-20T04:41:42;1.10;;;1.00;;
4616;SDS011;2321;42.704;23.384;2022-11-20T04:44:09;0.80;;;0.80;;
4616;SDS011;2321;42.704;23.384;2022-11-20T04:46:37;8.40;;;1.30;;
4616;SDS011;2321;42.704;23.384;2022-11-20T04:49:06;2.87;;;1.37;;
4616;SDS011;2321;42.704;23.384;2022-11-20T04:51:33;1.00;;;1.00;;
4616;SDS011;2321;42.704;23.384;2022-11-20T04:54:00;1.13;;;1.03;;
4616;SDS011;2321;42.704;23.384;2022-11-20T04:56:27;0.80;;;0.80;;
4616;SDS011;2321;42.704;23.384;2022-11-20T04:58:59;0.60;;;0.60;;
4616;SDS011;2321;42.704;23.384;2022-11-20T05:01:26;1.93;;;1.83;;
4616;SDS011;2321;42.704;23.384;2022-11-20T05:03:53;1.40;;;1.30;;
4616;SDS011;2321;42.704;23.384;2022-11-20T05:06:21;1.43;;;1.33;;
4616;SDS011;2321;42.704;23.384;2022-11-20T05:08:48;1.20;;;1.00;;
4616;SDS011;2321;42.704;23.384;2022-11-20T05:11:15;2.10;;;0.90;;
4616;SDS011;2321;42.704;23.384;2022-11-20T05:13:44;0.90;;;0.90;;
4616;SDS011;2321;42.704;23.384;2022-11-20T05:16:13;1.10;;;1.10;;
4616;SDS011;2321;42.704;23.384;2022-11-20T05:18:41;0.97;;;0.90;;
4616;SDS011;2321;42.704;23.384;2022-11-20T05:21:09;2.73;;;0.87;;
4616;SDS011;2321;42.704;23.384;2022-11-20T05:23:37;0.70;;;0.70;;
4616;SDS011;2321;42.704;23.384;2022-11-20T05:26:04;1.07;;;0.97;;
4616;SDS011;2321;42.704;23.384;2022-11-20T05:28:32;0.70;;;0.70;;
4616;SDS011;2321;42.704;23.384;2022-11-20T05:31:06;3.70;;;0.90;;
4616;SDS011;2321;42.704;23.384;2022-11-20T05:33:36;2.77;;;1.03;;
4616;SDS011;2321;42.704;23.384;2022-11-20T05:36:03;0.70;;;0.70;;
4616;SDS011;2321;42.704;23.384;2022-11-20T05:38:31;0.83;;;0.83;;
4616;SDS011;2321;42.704;23.384;2022-11-20T05:41:02;2.60;;;1.33;;
4616;SDS011;2321;42.704;23.384;2022-11-20T05:43:31;0.80;;;0.80;;
4616;SDS011;2321;42.704;23.384;2022-11-20T05:46:00;4.87;;;1.13;;
4616;SDS011;2321;42.704;23.384;2022-11-20T05:48:27;1.60;;;0.83;;
4616;SDS011;2321;42.704;23.384;2022-11-20T05:50:55;6.93;;;2.83;;
4616;SDS011;2321;42.704;23.384;2022-11-20T05:53:23;1.67;;;0.90;;
4616;SDS011;2321;42.704;23.384;2022-11-20T05:55:55;1.47;;;1.27;;
4616;SDS011;2321;42.704;23.384;2022-11-20T05:58:23;0.80;;;0.80;;
4616;SDS011;2321;42.704;23.384;2022-11-20T06:00:50;0.93;;;0.93;;
4616;SDS011;2321;42.704;23.384;2022-11-20T06:03:17;6.10;;;0.80;;
4616;SDS011;2321;42.704;23.384;2022-11-20T06:05:44;2.10;;;1.17;;
4616;SDS011;2321;42.704;23.384;2022-11-20T06:08:12;3.23;;;1.57;;
4616;SDS011;2321;42.704;23.384;2022-11-20T06:10:39;5.60;;;1.00;;
4616;SDS011;2321;42.704;23.384;2022-11-20T06:13:06;0.70;;;0.70;;
4616;SDS011;2321;42.704;23.384;2022-11-20T06:15:33;1.80;;;1.20;;
4616;SDS011;2321;42.704;23.384;2022-11-20T06:18:00;1.90;;;1.00;;
4616;SDS011;2321;42.704;23.384;2022-11-20T06:20:27;0.60;;;0.60;;
4616;SDS011;2321;42.704;23.384;2022-11-20T06:22:54;1.63;;;0.80;;
4616;SDS011;2321;42.704;23.384;2022-11-20T06:25:22;1.40;;;1.40;;
4616;SDS011;2321;42.704;23.384;2022-11-20T06:27:49;0.70;;;0.70;;
4616;SDS011;2321;42.704;23.384;2022-11-20T06:30:16;0.80;;;0.80;;
4616;SDS011;2321;42.704;23.384;2022-11-20T06:32:43;0.60;;;0.60;;
4616;SDS011;2321;42.704;23.384;2022-11-20T06:35:10;0.60;;;0.60;;
4616;SDS011;2321;42.704;23.384;2022-11-20T06:37:37;0.90;;;0.90;;
4616;SDS011;2321;42.704;23.384;2022-11-20T06:40:04;0.60;;;0.60;;
4616;SDS011;2321;42.704;23.384;2022-11-20T06:42:33;0.80;;;0.80;;
4616;SDS011;2321;42.704;23.384;2022-11-20T06:45:00;3.40;;;0.97;;
4616;SDS011;2321;42.704;23.384;2022-11-20T06:47:27;1.03;;;0.93;;
4616;SDS011;2321;42.704;23.384;2022-11-20T06:49:54;2.20;;;0.87;;
4616;SDS011;2321;42.704;23.384;2022-11-20T06:52:21;9.63;;;1.10;;
4616;SDS011;2321;42.704;23.384;2022-11-20T06:54:48;0.90;;;0.90;;
4616;SDS011;2321;42.704;23.384;2022-11-20T06:57:15;0.80;;;0.80;;
4616;SDS011;2321;42.704;23.384;2022-11-20T06:59:43;6.73;;;0.90;;
4616;SDS011;2321;42.704;23.384;2022-11-20T07:02:10;0.83;;;0.83;;
4616;SDS011;2321;42.704;23.384;2022-11-20T07:04:37;1.67;;;1.57;;
4616;SDS011;2321;42.704;23.384;2022-11-20T07:07:04;16.77;;;2.00;;
4616;SDS011;2321;42.704;23.384;2022-11-20T07:09:32;3.90;;;2.40;;
4616;SDS011;2321;42.704;23.384;2022-11-20T07:11:59;2.07;;;1.87;;
4616;SDS011;2321;42.704;23.384;2022-11-20T07:14:26;0.80;;;0.80;;
4616;SDS011;2321;42.704;23.384;2022-11-20T07:16:55;1.43;;;0.80;;
4616;SDS011;2321;42.704;23.384;2022-11-20T07:19:22;0.80;;;0.80;;
4616;SDS011;2321;42.704;23.384;2022-11-20T07:21:49;0.70;;;0.70;;
4616;SDS011;2321;42.704;23.384;2022-11-20T07:24:16;1.50;;;1.40;;
4616;SDS011;2321;42.704;23.384;2022-11-20T07:26:45;1.23;;;1.23;;
4616;SDS011;2321;42.704;23.384;2022-11-20T07:29:13;2.23;;;1.30;;
4616;SDS011;2321;42.704;23.384;2022-11-20T07:31:41;12.67;;;7.43;;
4616;SDS011;2321;42.704;23.384;2022-11-20T07:34:10;2.17;;;1.77;;
4616;SDS011;2321;42.704;23.384;2022-11-20T07:36:37;1.37;;;1.27;;
4616;SDS011;2321;42.704;23.384;2022-11-20T07:39:03;2.20;;;1.47;;
4616;SDS011;2321;42.704;23.384;2022-11-20T07:41:30;0.83;;;0.80;;
4616;SDS011;2321;42.704;23.384;2022-11-20T07:43:57;7.13;;;2.53;;
4616;SDS011;2321;42.704;23.384;2022-11-20T07:46:24;1.53;;;1.50;;
4616;SDS011;2321;42.704;23.384;2022-11-20T07:48:52;0.70;;;0.70;;
4616;SDS011;2321;42.704;23.384;2022-11-20T07:51:20;4.73;;;1.20;;
4616;SDS011;2321;42.704;23.384;2022-11-20T07:53:47;1.07;;;1.00;;
4616;SDS011;2321;42.704;23.384;2022-11-20T07:56:17;1.37;;;0.90;;
4616;SDS011;2321;42.704;23.384;2022-11-20T07:58:44;1.17;;;1.00;;
4616;SDS011;2321;42.704;23.384;2022-11-20T08:01:11;4.43;;;1.17;;
4616;SDS011;2321;42.704;23.384;2022-11-20T08:03:38;0.90;;;0.90;;
4616;SDS011;2321;42.704;23.384;2022-11-20T08:06:08;0.73;;;0.73;;
4616;SDS011;2321;42.704;23.384;2022-11-20T08:08:37;2.50;;;1.97;;
4616;SDS011;2321;42.704;23.384;2022-11-20T08:11:05;0.93;;;0.93;;
4616;SDS011;2321;42.704;23.384;2022-11-20T08:13:49;2.70;;;1.80;;
4616;SDS011;2321;42.704;23.384;2022-11-20T08:16:34;1.00;;;1.00;;
4616;SDS011;2321;42.704;23.384;2022-11-20T08:19:01;2.27;;;1.30;;
4616;SDS011;2321;42.704;23.384;2022-11-20T08:21:28;3.40;;;1.43;;
4616;SDS011;2321;42.704;23.384;2022-11-20T08:23:58;1.53;;;1.10;;
4616;SDS011;2321;42.704;23.384;2022-11-20T08:26:25;1.97;;;1.20;;
4616;SDS011;2321;42.704;23.384;2022-11-20T08:28:53;2.20;;;1.30;;
4616;SDS011;2321;42.704;23.384;2022-11-20T08:31:20;1.60;;;1.50;;
4616;SDS011;2321;42.704;23.384;2022-11-20T08:33:48;1.50;;;1.40;;
4616;SDS011;2321;42.704;23.384;2022-11-20T08:36:15;4.23;;;1.60;;
4616;SDS011;2321;42.704;23.384;2022-11-20T08:38:46;3.23;;;2.20;;
4616;SDS011;2321;42.704;23.384;2022-11-20T08:41:14;1.80;;;1.63;;
4616;SDS011;2321;42.704;23.384;2022-11-20T08:43:52;8.40;;;1.70;;
4616;SDS011;2321;42.704;23.384;2022-11-20T08:46:20;3.40;;;1.23;;
4616;SDS011;2321;42.704;23.384;2022-11-20T08:48:48;16.27;;;2.10;;
4616;SDS011;2321;42.704;23.384;2022-11-20T08:51:15;35.23;;;5.93;;
4616;SDS011;2321;42.704;23.384;2022-11-20T08:53:43;13.83;;;2.73;;
4616;SDS011;2321;42.704;23.384;2022-11-20T08:56:10;1.27;;;1.27;;
4616;SDS011;2321;42.704;23.384;2022-11-20T08:58:39;3.27;;;2.80;;
4616;SDS011;2321;42.704;23.384;2022-11-20T09:01:06;1.30;;;1.20;;
4616;SDS011;2321;42.704;23.384;2022-11-20T09:03:33;1.13;;;1.03;;
4616;SDS011;2321;42.704;23.384;2022-11-20T09:06:00;1.80;;;1.70;;
4616;SDS011;2321;42.704;23.384;2022-11-20T09:08:29;2.50;;;2.40;;
4616;SDS011;2321;42.704;23.384;2022-11-20T09:10:56;6.57;;;2.57;;
4616;SDS011;2321;42.704;23.384;2022-11-20T09:13:24;7.63;;;3.00;;
4616;SDS011;2321;42.704;23.384;2022-11-20T09:15:54;1.73;;;1.63;;
4616;SDS011;2321;42.704;23.384;2022-11-20T09:18:21;3.33;;;1.37;;
4616;SDS011;2321;42.704;23.384;2022-11-20T09:20:49;1.70;;;1.60;;
4616;SDS011;2321;42.704;23.384;2022-11-20T09:23:16;3.43;;;2.00;;
4616;SDS011;2321;42.704;23.384;2022-11-20T09:25:43;7.17;;;3.17;;
4616;SDS011;2321;42.704;23.384;2022-11-20T09:28:10;3.10;;;2.63;;
4616;SDS011;2321;42.704;23.384;2022-11-20T09:30:37;4.83;;;4.03;;
4616;SDS011;2321;42.704;23.384;2022-11-20T09:33:06;191.27;;;47.17;;
4616;SDS011;2321;42.704;23.384;2022-11-20T09:35:33;67.07;;;22.07;;
4616;SDS011;2321;42.704;23.384;2022-11-20T09:38:04;21.70;;;9.30;;
4616;SDS011;2321;42.704;23.384;2022-11-20T09:40:32;19.17;;;8.23;;
4616;SDS011;2321;42.704;23.384;2022-11-20T09:43:03;3.97;;;2.57;;
4616;SDS011;2321;42.704;23.384;2022-11-20T09:45:44;6.60;;;3.37;;
4616;SDS011;2321;42.704;23.384;2022-11-20T09:48:42;2.77;;;2.50;;
4616;SDS011;2321;42.704;23.384;2022-11-20T09:51:21;5.23;;;3.07;;
4616;SDS011;2321;42.704;23.384;2022-11-20T09:54:00;5.87;;;3.17;;
4616;SDS011;2321;42.704;23.384;2022-11-20T09:56:37;10.23;;;4.37;;
4616;SDS011;2321;42.704;23.384;2022-11-20T09:59:08;3.30;;;3.00;;
4616;SDS011;2321;42.704;23.384;2022-11-20T10:01:47;2.77;;;2.10;;
4616;SDS011;2321;42.704;23.384;2022-11-20T10:04:16;1.67;;;1.67;;
4616;SDS011;2321;42.704;23.384;2022-11-20T10:06:47;4.83;;;3.80;;
4616;SDS011;2321;42.704;23.384;2022-11-20T10:09:23;9.00;;;2.87;;
4616;SDS011;2321;42.704;23.384;2022-11-20T10:11:58;7.50;;;2.60;;
4616;SDS011;2321;42.704;23.384;2022-11-20T10:14:35;2.53;;;1.67;;
4616;SDS011;2321;42.704;23.384;2022-11-20T10:17:11;2.60;;;1.40;;
4616;SDS011;2321;42.704;23.384;2022-11-20T10:19:54;2.10;;;2.00;;
4616;SDS011;2321;42.704;23.384;2022-11-20T10:22:35;4.30;;;1.90;;
4616;SDS011;2321;42.704;23.384;2022-11-20T10:25:13;4.37;;;3.90;;
4616;SDS011;2321;42.704;23.384;2022-11-20T10:27:46;2.43;;;2.27;;
4616;SDS011;2321;42.704;23.384;2022-11-20T10:30:31;2.57;;;2.37;;
4616;SDS011;2321;42.704;23.384;2022-11-20T10:33:04;6.40;;;3.70;;
4616;SDS011;2321;42.704;23.384;2022-11-20T10:35:40;10.57;;;5.53;;
4616;SDS011;2321;42.704;23.384;2022-11-20T10:38:12;3.50;;;3.20;;
4616;SDS011;2321;42.704;23.384;2022-11-20T10:40:46;4.67;;;3.57;;
4616;SDS011;2321;42.704;23.384;2022-11-20T10:43:17;16.07;;;3.30;;
4616;SDS011;2321;42.704;23.384;2022-11-20T10:45:49;6.90;;;3.87;;
4616;SDS011;2321;42.704;23.384;2022-11-20T10:48:23;4.93;;;3.17;;
4616;SDS011;2321;42.704;23.384;2022-11-20T10:53:47;5.97;;;3.87;;
4616;SDS011;2321;42.704;23.384;2022-11-20T10:56:25;1.43;;;1.43;;
4616;SDS011;2321;42.704;23.384;2022-11-20T10:59:03;1.77;;;1.67;;
4616;SDS011;2321;42.704;23.384;2022-11-20T11:01:39;7.10;;;2.00;;
4616;SDS011;2321;42.704;23.384;2022-11-20T11:04:13;2.30;;;1.63;;
4616;SDS011;2321;42.704;23.384;2022-11-20T11:06:56;1.70;;;1.60;;
4616;SDS011;2321;42.704;23.384;2022-11-20T11:09:33;2.63;;;1.70;;
4616;SDS011;2321;42.704;23.384;2022-11-20T11:12:06;4.83;;;4.33;;
4616;SDS011;2321;42.704;23.384;2022-11-20T11:14:41;9.73;;;5.40;;
4616;SDS011;2321;42.704;23.384;2022-11-20T11:17:18;5.90;;;2.23;;
4616;SDS011;2321;42.704;23.384;2022-11-20T11:20:05;1.13;;;1.03;;
4616;SDS011;2321;42.704;23.384;2022-11-20T11:22:44;1.10;;;1.10;;
4616;SDS011;2321;42.704;23.384;2022-11-20T11:25:19;5.00;;;2.00;;
4616;SDS011;2321;42.704;23.384;2022-11-20T11:27:48;1.93;;;1.80;;
4616;SDS011;2321;42.704;23.384;2022-11-20T11:30:17;0.90;;;0.90;;
4616;SDS011;2321;42.704;23.384;2022-11-20T11:32:45;1.33;;;1.30;;
4616;SDS011;2321;42.704;23.384;2022-11-20T11:35:22;1.20;;;1.20;;
4616;SDS011;2321;42.704;23.384;2022-11-20T11:37:53;4.90;;;2.83;;
4616;SDS011;2321;42.704;23.384;2022-11-20T11:40:28;3.00;;;2.77;;
4616;SDS011;2321;42.704;23.384;2022-11-20T11:42:58;2.40;;;2.20;;
4616;SDS011;2321;42.704;23.384;2022-11-20T11:45:28;4.37;;;2.40;;
4616;SDS011;2321;42.704;23.384;2022-11-20T11:47:55;1.77;;;1.67;;
4616;SDS011;2321;42.704;23.384;2022-11-20T11:50:24;1.10;;;1.10;;
4616;SDS011;2321;42.704;23.384;2022-11-20T11:52:58;1.07;;;1.07;;
4616;SDS011;2321;42.704;23.384;2022-11-20T11:55:36;2.50;;;2.30;;
4616;SDS011;2321;42.704;23.384;2022-11-20T11:58:14;1.60;;;1.50;;
4616;SDS011;2321;42.704;23.384;2022-11-20T12:00:47;1.70;;;1.37;;
4616;SDS011;2321;42.704;23.384;2022-11-20T12:03:22;1.40;;;1.30;;
4616;SDS011;2321;42.704;23.384;2022-11-20T12:05:55;3.03;;;1.33;;
4616;SDS011;2321;42.704;23.384;2022-11-20T12:08:28;5.47;;;2.70;;
4616;SDS011;2321;42.704;23.384;2022-11-20T12:11:00;3.97;;;3.47;;
4616;SDS011;2321;42.704;23.384;2022-11-20T12:13:39;4.53;;;4.00;;
4616;SDS011;2321;42.704;23.384;2022-11-20T12:16:12;15.40;;;4.30;;
4616;SDS011;2321;42.704;23.384;2022-11-20T12:18:41;20.20;;;9.13;;
4616;SDS011;2321;42.704;23.384;2022-11-20T12:21:12;9.70;;;5.97;;
4616;SDS011;2321;42.704;23.384;2022-11-20T12:23:56;16.67;;;2.50;;
4616;SDS011;2321;42.704;23.384;2022-11-20T12:26:43;6.07;;;3.00;;
4616;SDS011;2321;42.704;23.384;2022-11-20T12:29:23;8.70;;;5.60;;
4616;SDS011;2321;42.704;23.384;2022-11-20T12:32:03;4.73;;;4.20;;
4616;SDS011;2321;42.704;23.384;2022-11-20T12:34:47;5.23;;;2.43;;
4616;SDS011;2321;42.704;23.384;2022-11-20T12:37:28;3.83;;;3.13;;
4616;SDS011;2321;42.704;23.384;2022-11-20T12:40:05;2.07;;;1.93;;
4616;SDS011;2321;42.704;23.384;2022-11-20T12:42:48;2.97;;;2.40;;
4616;SDS011;2321;42.704;23.384;2022-11-20T12:48:55;3.70;;;2.60;;
4616;SDS011;2321;42.704;23.384;2022-11-20T12:51:36;2.07;;;2.00;;
4616;SDS011;2321;42.704;23.384;2022-11-20T12:54:25;2.93;;;2.17;;
4616;SDS011;2321;42.704;23.384;2022-11-20T12:57:15;9.43;;;5.23;;
4616;SDS011;2321;42.704;23.384;2022-11-20T13:00:01;5.53;;;3.03;;
4616;SDS011;2321;42.704;23.384;2022-11-20T13:02:38;5.70;;;3.30;;
4616;SDS011;2321;42.704;23.384;2022-11-20T13:05:19;3.97;;;3.10;;
4616;SDS011;2321;42.704;23.384;2022-11-20T13:07:51;5.67;;;4.13;;
4616;SDS011;2321;42.704;23.384;2022-11-20T13:10:21;5.80;;;5.17;;
4616;SDS011;2321;42.704;23.384;2022-11-20T13:12:58;2.47;;;2.20;;
4616;SDS011;2321;42.704;23.384;2022-11-20T13:15:33;3.77;;;2.17;;
4616;SDS011;2321;42.704;23.384;2022-11-20T13:18:08;2.70;;;2.03;;
4616;SDS011;2321;42.704;23.384;2022-11-20T13:20:41;2.27;;;1.60;;
4616;SDS011;2321;42.704;23.384;2022-11-20T13:23:09;7.37;;;2.33;;
4616;SDS011;2321;42.704;23.384;2022-11-20T13:25:37;1.13;;;1.00;;
4616;SDS011;2321;42.704;23.384;2022-11-20T13:30:55;11.30;;;1.90;;
4616;SDS011;2321;42.704;23.384;2022-11-20T13:33:26;3.33;;;2.30;;
4616;SDS011;2321;42.704;23.384;2022-11-20T13:35:56;3.23;;;1.40;;
4616;SDS011;2321;42.704;23.384;2022-11-20T13:38:24;2.37;;;2.10;;
4616;SDS011;2321;42.704;23.384;2022-11-20T13:40:52;1.30;;;1.30;;
4616;SDS011;2321;42.704;23.384;2022-11-20T13:43:33;1.83;;;1.73;;
4616;SDS011;2321;42.704;23.384;2022-11-20T13:46:03;1.80;;;1.70;;
4616;SDS011;2321;42.704;23.384;2022-11-20T13:48:32;2.07;;;1.60;;
4616;SDS011;2321;42.704;23.384;2022-11-20T13:51:05;10.60;;;4.50;;
4616;SDS011;2321;42.704;23.384;2022-11-20T13:53:44;10.07;;;5.03;;
4616;SDS011;2321;42.704;23.384;2022-11-20T13:56:24;4.23;;;3.83;;
4616;SDS011;2321;42.704;23.384;2022-11-20T13:59:05;10.40;;;5.67;;
4616;SDS011;2321;42.704;23.384;2022-11-20T14:01:38;30.07;;;12.70;;
4616;SDS011;2321;42.704;23.384;2022-11-20T14:04:06;21.23;;;3.40;;
4616;SDS011;2321;42.704;23.384;2022-11-20T14:06:38;5.20;;;4.20;;
4616;SDS011;2321;42.704;23.384;2022-11-20T14:09:10;3.90;;;3.50;;
4616;SDS011;2321;42.704;23.384;2022-11-20T14:11:45;5.53;;;4.00;;
4616;SDS011;2321;42.704;23.384;2022-11-20T14:14:15;3.47;;;2.83;;
4616;SDS011;2321;42.704;23.384;2022-11-20T14:16:44;7.37;;;6.30;;
4616;SDS011;2321;42.704;23.384;2022-11-20T14:19:25;10.40;;;7.63;;
4616;SDS011;2321;42.704;23.384;2022-11-20T14:22:06;11.10;;;8.00;;
4616;SDS011;2321;42.704;23.384;2022-11-20T14:24:35;9.97;;;7.00;;
4616;SDS011;2321;42.704;23.384;2022-11-20T14:27:03;10.53;;;6.80;;
4616;SDS011;2321;42.704;23.384;2022-11-20T14:29:33;17.27;;;7.37;;
4616;SDS011;2321;42.704;23.384;2022-11-20T14:32:01;18.50;;;10.97;;
4616;SDS011;2321;42.704;23.384;2022-11-20T14:34:30;12.40;;;9.43;;
4616;SDS011;2321;42.704;23.384;2022-11-20T14:37:00;10.80;;;8.80;;
4616;SDS011;2321;42.704;23.384;2022-11-20T14:39:30;7.40;;;5.20;;
4616;SDS011;2321;42.704;23.384;2022-11-20T14:41:59;27.10;;;13.27;;
4616;SDS011;2321;42.704;23.384;2022-11-20T14:44:27;30.90;;;14.90;;
4616;SDS011;2321;42.704;23.384;2022-11-20T14:46:57;24.00;;;14.13;;
4616;SDS011;2321;42.704;23.384;2022-11-20T14:49:26;24.03;;;10.63;;
4616;SDS011;2321;42.704;23.384;2022-11-20T14:51:59;18.13;;;10.40;;
4616;SDS011;2321;42.704;23.384;2022-11-20T14:54:26;10.90;;;9.03;;
4616;SDS011;2321;42.704;23.384;2022-11-20T14:56:55;19.33;;;8.97;;
4616;SDS011;2321;42.704;23.384;2022-11-20T14:59:23;15.60;;;10.20;;
4616;SDS011;2321;42.704;23.384;2022-11-20T15:01:54;12.90;;;8.53;;
4616;SDS011;2321;42.704;23.384;2022-11-20T15:04:24;13.00;;;9.27;;
4616;SDS011;2321;42.704;23.384;2022-11-20T15:06:51;16.10;;;10.80;;
4616;SDS011;2321;42.704;23.384;2022-11-20T15:09:20;14.33;;;9.07;;
4616;SDS011;2321;42.704;23.384;2022-11-20T15:11:52;27.37;;;9.80;;
4616;SDS011;2321;42.704;23.384;2022-11-20T15:14:21;46.67;;;18.80;;
4616;SDS011;2321;42.704;23.384;2022-11-20T15:16:49;55.53;;;15.47;;
4616;SDS011;2321;42.704;23.384;2022-11-20T15:19:17;14.50;;;6.70;;
4616;SDS011;2321;42.704;23.384;2022-11-20T15:21:48;21.30;;;11.33;;
4616;SDS011;2321;42.704;23.384;2022-11-20T15:24:15;30.47;;;14.70;;
4616;SDS011;2321;42.704;23.384;2022-11-20T15:26:43;39.70;;;18.87;;
4616;SDS011;2321;42.704;23.384;2022-11-20T15:29:10;92.37;;;43.50;;